Time;durP1;ratioP1;P1;durP2;ratioP2;P2;SDS_P1;SDS_P2;PMS_P1;PMS_P2;Temp;Humidity;BMP_temperature;BMP_pressure;BME280_temperature;BME280_humidity;BME280_pressure;Samples;Min_cycle;Max_cycle;Signal;HPM_P1;HPM_P2
2023/10/04 00:01:40;;;;;;;21.95;1.67;;;;;;;;;;5052309;28;20029;-39
2023/10/04 00:04:07;;;;;;;4.72;1.27;;;;;;;;;;5053085;28;20175;-42
2023/10/04 00:06:35;;;;;;;4.65;1.52;;;;;;;;;;5051470;28;20056;-42
2023/10/04 00:09:03;;;;;;;3.08;1.20;;;;;;;;;;5051497;28;20017;-41
2023/10/04 00:11:33;;;;;;;3.83;1.52;;;;;;;;;;5051639;28;20131;-39
2023/10/04 00:14:00;;;;;;;6.15;1.42;;;;;;;;;;5050381;28;20049;-37
2023/10/04 00:16:27;;;;;;;5.43;1.50;;;;;;;;;;5034355;28;20032;-42
2023/10/04 00:18:55;;;;;;;4.47;1.73;;;;;;;;;;5050032;28;20194;-42
2023/10/04 00:21:22;;;;;;;6.43;1.35;;;;;;;;;;5051665;28;20041;-43
2023/10/04 00:23:49;;;;;;;5.70;1.42;;;;;;;;;;5053192;28;20032;-43
2023/10/04 00:26:16;;;;;;;6.18;1.40;;;;;;;;;;5050282;28;20398;-40
2023/10/04 00:28:43;;;;;;;6.32;1.48;;;;;;;;;;5051467;28;20064;-39
2023/10/04 00:31:11;;;;;;;5.22;1.30;;;;;;;;;;5052908;28;20115;-37
2023/10/04 00:33:38;;;;;;;4.55;1.88;;;;;;;;;;5052835;28;20033;-45
2023/10/04 00:36:05;;;;;;;6.40;1.73;;;;;;;;;;5047081;28;20512;-42
2023/10/04 00:38:33;;;;;;;5.80;2.00;;;;;;;;;;5042269;28;20044;-42
2023/10/04 00:41:00;;;;;;;11.60;2.95;;;;;;;;;;5037395;28;20053;-47
2023/10/04 00:43:27;;;;;;;7.28;2.17;;;;;;;;;;5050430;28;20170;-41
2023/10/04 00:45:55;;;;;;;11.18;2.47;;;;;;;;;;5049257;28;20033;-41
2023/10/04 00:48:32;;;;;;;11.48;2.30;;;;;;;;;;5052696;28;20107;-44
2023/10/04 00:50:59;;;;;;;18.10;2.28;;;;;;;;;;5047877;28;20103;-44
2023/10/04 00:53:29;;;;;;;9.73;2.60;;;;;;;;;;5041969;28;20037;-44
2023/10/04 00:55:57;;;;;;;11.60;2.55;;;;;;;;;;5042221;28;20488;-44
2023/10/04 00:58:24;;;;;;;15.98;2.45;;;;;;;;;;5044671;28;20088;-44
2023/10/04 01:00:52;;;;;;;19.25;2.88;;;;;;;;;;5034175;28;20029;-45
2023/10/04 01:03:24;;;;;;;10.57;2.50;;;;;;;;;;5049762;28;20390;-44
2023/10/04 01:05:52;;;;;;;13.77;2.67;;;;;;;;;;5042216;28;20491;-44
2023/10/04 01:08:22;;;;;;;19.30;3.20;;;;;;;;;;5043046;28;20057;-44
2023/10/04 01:10:50;;;;;;;18.88;3.55;;;;;;;;;;5044137;28;20036;-44
2023/10/04 01:13:21;;;;;;;13.15;3.17;;;;;;;;;;5052241;28;20040;-44
2023/10/04 01:15:51;;;;;;;12.02;2.97;;;;;;;;;;5052433;28;20544;-43
2023/10/04 01:18:18;;;;;;;17.35;3.20;;;;;;;;;;5051801;28;20036;-44
2023/10/04 01:20:46;;;;;;;19.92;4.15;;;;;;;;;;5052423;28;20509;-45
2023/10/04 01:23:14;;;;;;;21.20;3.78;;;;;;;;;;5052033;28;20421;-44
2023/10/04 01:25:42;;;;;;;12.68;2.92;;;;;;;;;;5051934;28;20029;-44
2023/10/04 01:28:14;;;;;;;15.55;3.33;;;;;;;;;;5052052;28;20020;-44
2023/10/04 01:30:41;;;;;;;17.98;3.72;;;;;;;;;;5051726;28;20075;-44
2023/10/04 01:33:11;;;;;;;17.67;3.33;;;;;;;;;;5043842;28;20682;-44
2023/10/04 01:35:39;;;;;;;9.38;2.40;;;;;;;;;;5047215;28;20486;-45
2023/10/04 01:38:06;;;;;;;13.45;2.78;;;;;;;;;;5043400;28;20033;-44
2023/10/04 01:40:35;;;;;;;15.27;3.10;;;;;;;;;;5040704;28;20052;-44
2023/10/04 01:43:15;;;;;;;18.20;3.42;;;;;;;;;;5051919;28;20043;-44
2023/10/04 01:45:53;;;;;;;10.23;2.28;;;;;;;;;;5051531;28;20020;-44
2023/10/04 01:50:13;;;;;;;11.68;2.60;;;;;;;;;;4957109;27;2546561;-42
2023/10/04 01:52:40;;;;;;;11.15;3.03;;;;;;;;;;5008990;28;20030;-42
2023/10/04 01:55:10;;;;;;;12.70;2.90;;;;;;;;;;4999896;28;20076;-42
2023/10/04 01:57:41;;;;;;;11.75;2.50;;;;;;;;;;5001505;28;20623;-40
2023/10/04 02:00:16;;;;;;;10.68;3.08;;;;;;;;;;5008778;28;20042;-37
2023/10/04 02:02:46;;;;;;;8.07;2.42;;;;;;;;;;5008612;28;20391;-41
2023/10/04 02:05:20;;;;;;;9.27;2.80;;;;;;;;;;5008611;28;20107;-39
2023/10/04 02:07:47;;;;;;;17.63;2.58;;;;;;;;;;5008647;28;20127;-38
2023/10/04 02:10:14;;;;;;;13.43;2.40;;;;;;;;;;5008568;28;20084;-46
2023/10/04 02:12:42;;;;;;;9.50;2.85;;;;;;;;;;5008557;28;20030;-51
2023/10/04 02:15:14;;;;;;;13.05;3.08;;;;;;;;;;5008549;28;20042;-45
2023/10/04 02:17:43;;;;;;;7.72;2.60;;;;;;;;;;4995355;28;20044;-46
2023/10/04 02:25:13;;;;;;;9.98;2.10;;;;;;;;;;4989181;27;2541675;-43
2023/10/04 02:27:44;;;;;;;9.77;2.25;;;;;;;;;;5075717;28;20036;-42
2023/10/04 02:30:29;;;;;;;10.77;2.65;;;;;;;;;;5078502;28;20041;-42
2023/10/04 02:32:57;;;;;;;8.23;2.75;;;;;;;;;;5073609;28;20119;-42
2023/10/04 02:35:28;;;;;;;5.75;2.05;;;;;;;;;;5068468;28;20547;-42
2023/10/04 02:38:00;;;;;;;10.13;2.33;;;;;;;;;;5068472;28;20409;-42
2023/10/04 02:40:28;;;;;;;5.72;2.15;;;;;;;;;;5068329;28;20394;-43
2023/10/04 02:42:55;;;;;;;12.00;2.35;;;;;;;;;;5068335;28;20106;-42
2023/10/04 02:45:24;;;;;;;7.78;2.30;;;;;;;;;;5068423;28;20040;-42
2023/10/04 02:47:52;;;;;;;6.40;1.77;;;;;;;;;;5068266;28;20040;-42
2023/10/04 02:50:21;;;;;;;7.78;2.25;;;;;;;;;;5068264;28;20036;-42
2023/10/04 02:52:50;;;;;;;7.13;2.25;;;;;;;;;;5068135;28;20033;-41
2023/10/04 02:55:21;;;;;;;7.93;1.88;;;;;;;;;;5068026;28;20037;-42
2023/10/04 02:57:52;;;;;;;7.20;2.00;;;;;;;;;;5068118;28;20029;-42
2023/10/04 03:00:21;;;;;;;6.35;2.13;;;;;;;;;;5067843;28;20416;-42
2023/10/04 03:02:50;;;;;;;6.45;2.08;;;;;;;;;;5068042;28;20076;-45
2023/10/04 03:05:20;;;;;;;19.60;2.22;;;;;;;;;;5067897;28;20386;-42
2023/10/04 03:07:50;;;;;;;6.18;1.90;;;;;;;;;;5073117;28;20126;-40
2023/10/04 03:10:24;;;;;;;5.82;1.88;;;;;;;;;;5067103;28;20110;-38
2023/10/04 03:12:52;;;;;;;8.27;1.73;;;;;;;;;;5067442;28;20035;-35
2023/10/04 03:15:22;;;;;;;7.72;2.05;;;;;;;;;;5066545;28;20407;-35
2023/10/04 03:17:50;;;;;;;5.07;1.90;;;;;;;;;;5067277;28;20138;-35
2023/10/04 03:20:21;;;;;;;7.13;1.75;;;;;;;;;;5067270;28;20393;-38
2023/10/04 03:22:55;;;;;;;7.00;1.92;;;;;;;;;;5067224;28;20134;-38
2023/10/04 03:25:26;;;;;;;6.60;2.22;;;;;;;;;;5069503;28;20048;-36
2023/10/04 03:27:54;;;;;;;5.38;1.83;;;;;;;;;;5091842;28;20386;-36
2023/10/04 03:30:21;;;;;;;6.32;1.90;;;;;;;;;;5087608;28;20020;-36
2023/10/04 03:32:53;;;;;;;7.70;1.85;;;;;;;;;;5087677;28;20028;-39
2023/10/04 03:35:26;;;;;;;4.30;1.48;;;;;;;;;;5079241;28;20039;-37
2023/10/04 03:38:01;;;;;;;6.45;1.50;;;;;;;;;;5072651;28;20589;-37
2023/10/04 03:40:39;;;;;;;8.77;1.88;;;;;;;;;;5073504;28;20040;-36
2023/10/04 03:43:07;;;;;;;4.50;1.40;;;;;;;;;;5073875;28;20170;-32
2023/10/04 03:45:35;;;;;;;4.72;1.65;;;;;;;;;;5073800;28;20031;-36
2023/10/04 03:48:05;;;;;;;6.35;1.67;;;;;;;;;;5072577;28;20036;-34
2023/10/04 03:50:32;;;;;;;4.15;1.30;;;;;;;;;;5073610;28;20036;-35
2023/10/04 03:52:59;;;;;;;7.63;1.60;;;;;;;;;;5055262;28;20363;-41
2023/10/04 03:55:26;;;;;;;4.10;1.30;;;;;;;;;;5064760;28;20025;-41
2023/10/04 03:57:56;;;;;;;7.20;1.58;;;;;;;;;;5055168;28;20394;-40
2023/10/04 04:00:24;;;;;;;6.72;1.65;;;;;;;;;;5061313;28;20078;-40
2023/10/04 04:02:51;;;;;;;3.15;1.50;;;;;;;;;;5062547;28;20128;-41
2023/10/04 04:05:22;;;;;;;8.55;1.30;;;;;;;;;;5061904;28;20029;-40
2023/10/04 04:07:49;;;;;;;5.50;1.60;;;;;;;;;;5062844;28;20028;-40
2023/10/04 04:10:19;;;;;;;4.70;1.25;;;;;;;;;;5062474;28;20109;-42
2023/10/04 04:12:46;;;;;;;4.20;1.42;;;;;;;;;;5061876;28;20095;-40
2023/10/04 04:15:23;;;;;;;3.30;1.40;;;;;;;;;;5062332;28;20036;-41
2023/10/04 04:17:51;;;;;;;7.38;1.55;;;;;;;;;;5062584;28;20033;-40
2023/10/04 04:20:19;;;;;;;4.97;1.50;;;;;;;;;;5059793;28;20017;-39
2023/10/04 04:22:55;;;;;;;5.75;1.35;;;;;;;;;;5062236;28;20047;-40
2023/10/04 04:25:26;;;;;;;5.38;1.35;;;;;;;;;;5061735;28;20041;-40
2023/10/04 04:27:56;;;;;;;5.75;1.42;;;;;;;;;;5062258;28;20132;-41
2023/10/04 04:30:28;;;;;;;3.00;1.33;;;;;;;;;;5061895;28;20029;-41
2023/10/04 04:33:02;;;;;;;5.60;1.60;;;;;;;;;;5061827;28;20061;-40
2023/10/04 04:38:24;;;;;;;4.47;1.20;;;;;;;;;;5061925;28;20059;-40
2023/10/04 04:40:52;;;;;;;2.58;1.17;;;;;;;;;;5062004;28;20098;-41
2023/10/04 04:45:51;;;;;;;3.83;1.27;;;;;;;;;;5053116;28;20033;-40
2023/10/04 04:48:25;;;;;;;2.72;1.27;;;;;;;;;;5052383;28;20096;-40
2023/10/04 04:50:55;;;;;;;4.30;1.50;;;;;;;;;;5053029;28;20033;-40
2023/10/04 04:53:22;;;;;;;2.75;1.15;;;;;;;;;;5052927;28;20029;-39
2023/10/04 04:55:50;;;;;;;4.15;1.30;;;;;;;;;;5052781;28;20036;-40
2023/10/04 04:58:22;;;;;;;4.63;1.40;;;;;;;;;;5052743;28;20029;-40
2023/10/04 05:00:50;;;;;;;3.08;1.20;;;;;;;;;;5052954;28;20116;-41
2023/10/04 05:03:18;;;;;;;3.35;1.35;;;;;;;;;;5052610;28;20063;-40
2023/10/04 05:05:49;;;;;;;2.72;1.23;;;;;;;;;;5052877;28;20035;-40
2023/10/04 05:08:20;;;;;;;3.95;1.17;;;;;;;;;;5052559;28;20029;-40
2023/10/04 05:10:49;;;;;;;3.65;1.30;;;;;;;;;;5052420;28;20558;-40
2023/10/04 05:13:20;;;;;;;3.28;1.13;;;;;;;;;;5052335;28;20047;-40
2023/10/04 05:15:47;;;;;;;3.13;1.10;;;;;;;;;;5052540;28;20095;-40
2023/10/04 05:18:18;;;;;;;4.28;1.38;;;;;;;;;;5052547;28;20765;-40
2023/10/04 05:20:45;;;;;;;4.35;1.63;;;;;;;;;;5052496;28;20394;-40
2023/10/04 05:23:12;;;;;;;6.70;1.38;;;;;;;;;;5052171;28;20495;-39
2023/10/04 05:25:40;;;;;;;2.45;0.98;;;;;;;;;;5034249;28;20044;-40
2023/10/04 05:28:11;;;;;;;3.60;1.02;;;;;;;;;;5052332;28;20083;-40
2023/10/04 05:30:41;;;;;;;3.50;1.20;;;;;;;;;;5052119;28;20041;-41
2023/10/04 05:33:08;;;;;;;2.20;0.80;;;;;;;;;;5051978;28;20120;-41
2023/10/04 05:35:36;;;;;;;2.13;0.90;;;;;;;;;;5052126;28;20041;-41
2023/10/04 05:38:03;;;;;;;4.38;1.10;;;;;;;;;;5052091;28;20029;-41
2023/10/04 05:40:34;;;;;;;2.42;1.13;;;;;;;;;;5052142;28;20474;-41
2023/10/04 05:43:03;;;;;;;2.42;1.02;;;;;;;;;;5051789;28;20033;-41
2023/10/04 05:45:31;;;;;;;1.65;0.90;;;;;;;;;;5051816;28;20025;-41
2023/10/04 05:47:59;;;;;;;3.42;1.23;;;;;;;;;;5051725;28;20025;-41
2023/10/04 05:50:27;;;;;;;1.40;0.60;;;;;;;;;;5051764;28;20033;-42
2023/10/04 05:52:57;;;;;;;3.08;1.10;;;;;;;;;;5051841;28;20032;-41
2023/10/04 05:55:26;;;;;;;2.60;1.08;;;;;;;;;;5051756;28;20119;-41
2023/10/04 05:57:53;;;;;;;3.08;1.00;;;;;;;;;;5051572;28;20029;-41
2023/10/04 06:00:33;;;;;;;2.90;1.25;;;;;;;;;;5051904;28;20100;-41
2023/10/04 06:03:04;;;;;;;2.08;1.05;;;;;;;;;;5070014;28;20561;-41
2023/10/04 06:05:34;;;;;;;2.83;1.02;;;;;;;;;;5071658;28;20043;-41
2023/10/04 06:08:06;;;;;;;2.63;0.85;;;;;;;;;;5071821;28;20082;-41
2023/10/04 06:10:34;;;;;;;1.90;0.88;;;;;;;;;;5071581;28;20029;-41
2023/10/04 06:13:02;;;;;;;2.70;1.08;;;;;;;;;;5071564;28;20036;-41
2023/10/04 06:15:33;;;;;;;2.42;1.00;;;;;;;;;;5071538;28;20032;-41
2023/10/04 06:18:00;;;;;;;2.83;1.10;;;;;;;;;;5071519;28;20426;-41
2023/10/04 06:20:33;;;;;;;2.10;0.93;;;;;;;;;;5071600;28;20024;-41
2023/10/04 06:23:01;;;;;;;3.08;1.20;;;;;;;;;;5071410;28;20401;-41
2023/10/04 06:25:29;;;;;;;3.45;1.13;;;;;;;;;;5070923;28;20067;-40
2023/10/04 06:27:57;;;;;;;1.90;1.00;;;;;;;;;;5071489;28;20028;-40
2023/10/04 06:30:28;;;;;;;2.90;1.00;;;;;;;;;;5071459;28;20116;-40
2023/10/04 06:32:56;;;;;;;3.25;0.98;;;;;;;;;;5071401;28;20021;-40
2023/10/04 06:35:24;;;;;;;3.83;1.05;;;;;;;;;;5071446;28;20063;-40
2023/10/04 06:37:55;;;;;;;1.70;0.80;;;;;;;;;;5071553;28;20408;-40
2023/10/04 06:40:23;;;;;;;4.28;1.25;;;;;;;;;;5071386;28;20044;-40
2023/10/04 06:42:51;;;;;;;1.42;0.95;;;;;;;;;;5071206;28;20031;-40
2023/10/04 06:45:18;;;;;;;0.95;0.73;;;;;;;;;;5071210;28;20024;-40
2023/10/04 06:47:46;;;;;;;3.38;0.90;;;;;;;;;;5071260;28;20529;-40
2023/10/04 06:50:14;;;;;;;1.88;0.80;;;;;;;;;;5071283;28;20037;-40
2023/10/04 06:52:44;;;;;;;1.73;0.95;;;;;;;;;;5071034;28;20604;-39
2023/10/04 06:55:11;;;;;;;1.23;0.70;;;;;;;;;;5071234;28;20098;-39
2023/10/04 06:57:42;;;;;;;2.47;0.82;;;;;;;;;;5071175;28;20029;-40
2023/10/04 07:00:16;;;;;;;3.22;0.90;;;;;;;;;;5071212;28;20059;-40
2023/10/04 07:02:47;;;;;;;0.90;0.70;;;;;;;;;;5070897;28;20064;-41
2023/10/04 07:05:20;;;;;;;2.22;1.00;;;;;;;;;;5053097;28;20039;-40
2023/10/04 07:07:51;;;;;;;2.22;0.82;;;;;;;;;;5071107;28;20050;-40
2023/10/04 07:10:20;;;;;;;1.17;0.80;;;;;;;;;;5072511;28;20036;-40
2023/10/04 07:12:48;;;;;;;3.67;1.45;;;;;;;;;;5074642;28;20032;-39
2023/10/04 07:15:16;;;;;;;2.05;0.80;;;;;;;;;;5074761;28;20048;-40
2023/10/04 07:17:43;;;;;;;1.70;0.85;;;;;;;;;;5074670;28;20761;-40
2023/10/04 07:20:15;;;;;;;2.70;1.00;;;;;;;;;;5074696;28;20074;-40
2023/10/04 07:22:48;;;;;;;2.15;0.82;;;;;;;;;;5074219;28;20161;-41
2023/10/04 07:25:16;;;;;;;2.55;1.00;;;;;;;;;;5074322;28;20091;-42
2023/10/04 07:27:44;;;;;;;1.50;0.70;;;;;;;;;;5074497;28;20033;-41
2023/10/04 07:30:15;;;;;;;1.60;0.80;;;;;;;;;;5074433;28;20029;-41
2023/10/04 07:32:43;;;;;;;3.10;0.90;;;;;;;;;;5074325;28;20501;-41
2023/10/04 07:35:15;;;;;;;1.05;0.70;;;;;;;;;;5074520;28;20082;-40
2023/10/04 07:37:43;;;;;;;2.55;0.90;;;;;;;;;;5074210;28;20432;-41
2023/10/04 07:40:11;;;;;;;1.65;1.00;;;;;;;;;;5074283;28;20371;-41
2023/10/04 07:42:38;;;;;;;1.55;0.70;;;;;;;;;;5074276;28;20478;-41
2023/10/04 07:45:07;;;;;;;1.60;0.70;;;;;;;;;;5074274;28;20093;-41
2023/10/04 07:47:38;;;;;;;2.00;0.88;;;;;;;;;;5074115;28;20657;-41
2023/10/04 07:50:12;;;;;;;1.00;0.70;;;;;;;;;;5074151;28;20043;-41
2023/10/04 07:52:39;;;;;;;1.88;1.10;;;;;;;;;;5074009;28;20032;-41
2023/10/04 07:55:18;;;;;;;2.75;0.98;;;;;;;;;;5073992;28;20063;-41
2023/10/04 07:57:49;;;;;;;1.67;0.68;;;;;;;;;;5073831;28;20093;-41
2023/10/04 08:00:16;;;;;;;2.65;0.90;;;;;;;;;;5074006;28;20523;-41
2023/10/04 08:02:50;;;;;;;2.42;0.73;;;;;;;;;;5073840;28;20488;-41
2023/10/04 08:05:23;;;;;;;0.90;0.50;;;;;;;;;;5073936;28;20032;-41
2023/10/04 08:07:56;;;;;;;1.52;0.73;;;;;;;;;;5073754;28;20032;-41
2023/10/04 08:10:25;;;;;;;1.67;0.75;;;;;;;;;;5073787;28;20024;-43
2023/10/04 08:12:53;;;;;;;1.30;0.70;;;;;;;;;;5073602;28;20056;-41
2023/10/04 08:15:21;;;;;;;1.88;0.77;;;;;;;;;;5073734;28;20047;-42
2023/10/04 08:17:48;;;;;;;3.17;0.90;;;;;;;;;;5073670;28;20052;-41
2023/10/04 08:20:15;;;;;;;1.05;0.63;;;;;;;;;;5073661;28;20086;-41
2023/10/04 08:22:43;;;;;;;2.03;0.73;;;;;;;;;;5073408;28;20028;-41
2023/10/04 08:25:11;;;;;;;1.85;0.90;;;;;;;;;;5073349;28;20545;-41
2023/10/04 08:27:40;;;;;;;3.55;0.85;;;;;;;;;;5073210;28;20024;-41
2023/10/04 08:30:08;;;;;;;0.98;0.60;;;;;;;;;;5064891;28;20072;-41
2023/10/04 08:32:35;;;;;;;1.73;1.00;;;;;;;;;;5073333;28;20025;-41
2023/10/04 08:35:02;;;;;;;1.15;0.57;;;;;;;;;;5073242;28;20032;-41
2023/10/04 08:37:29;;;;;;;1.10;0.63;;;;;;;;;;5073182;28;20071;-41
2023/10/04 08:39:57;;;;;;;2.47;0.73;;;;;;;;;;5073072;28;20036;-41
2023/10/04 08:42:24;;;;;;;1.35;0.80;;;;;;;;;;5073111;28;20028;-41
2023/10/04 08:44:52;;;;;;;1.77;0.95;;;;;;;;;;5073146;28;20028;-42
2023/10/04 08:47:20;;;;;;;1.63;0.80;;;;;;;;;;5073036;28;20024;-41
2023/10/04 08:49:47;;;;;;;1.40;0.75;;;;;;;;;;5073019;28;20032;-41
2023/10/04 08:52:17;;;;;;;1.60;0.70;;;;;;;;;;5072833;28;20104;-41
2023/10/04 08:54:50;;;;;;;1.40;0.70;;;;;;;;;;5072947;28;20039;-41
2023/10/04 08:57:22;;;;;;;1.10;0.77;;;;;;;;;;5072921;28;20390;-41
2023/10/04 08:59:51;;;;;;;0.90;0.60;;;;;;;;;;5072697;28;20359;-41
2023/10/04 09:02:20;;;;;;;1.52;0.70;;;;;;;;;;5072421;28;20028;-41
2023/10/04 09:04:47;;;;;;;1.05;0.77;;;;;;;;;;5072667;28;20041;-41
2023/10/04 09:07:16;;;;;;;1.35;0.60;;;;;;;;;;5072542;28;20367;-41
2023/10/04 09:09:45;;;;;;;1.75;0.73;;;;;;;;;;5072529;28;20094;-41
2023/10/04 09:12:12;;;;;;;1.42;0.70;;;;;;;;;;5072346;28;20043;-41
2023/10/04 09:14:40;;;;;;;1.67;0.73;;;;;;;;;;5072448;28;20097;-41
2023/10/04 09:17:14;;;;;;;1.45;0.65;;;;;;;;;;5072519;28;20086;-41
2023/10/04 09:19:47;;;;;;;1.75;0.82;;;;;;;;;;5072375;28;20368;-41
2023/10/04 09:22:17;;;;;;;1.30;0.60;;;;;;;;;;5067722;28;20029;-40
2023/10/04 09:25:04;;;;;;;0.80;0.60;;;;;;;;;;5052020;28;20051;-40
2023/10/04 09:27:31;;;;;;;1.42;0.60;;;;;;;;;;5052658;28;20047;-40
2023/10/04 09:29:59;;;;;;;4.75;0.73;;;;;;;;;;5068449;28;20028;-39
2023/10/04 09:32:38;;;;;;;2.08;0.90;;;;;;;;;;5091677;28;20097;-40
2023/10/04 09:35:05;;;;;;;0.90;0.70;;;;;;;;;;5092192;28;20032;-41
2023/10/04 09:37:32;;;;;;;1.40;0.82;;;;;;;;;;5080031;28;20035;-41
2023/10/04 09:40:13;;;;;;;1.95;0.80;;;;;;;;;;5051969;28;20032;-42
2023/10/04 09:42:53;;;;;;;5.22;1.00;;;;;;;;;;5054766;28;20104;-41
2023/10/04 09:45:21;;;;;;;2.45;0.80;;;;;;;;;;5051663;28;20068;-41
2023/10/04 09:47:51;;;;;;;2.70;0.90;;;;;;;;;;5051957;28;20479;-41
2023/10/04 09:50:23;;;;;;;1.75;0.73;;;;;;;;;;5052001;28;20021;-41
2023/10/04 09:52:53;;;;;;;6.50;1.30;;;;;;;;;;5051854;28;20359;-41
2023/10/04 09:55:22;;;;;;;2.15;1.00;;;;;;;;;;5034047;28;20029;-42
2023/10/04 09:57:50;;;;;;;3.08;1.02;;;;;;;;;;5054125;28;20506;-40
2023/10/04 10:00:17;;;;;;;3.83;0.93;;;;;;;;;;5063362;28;20428;-40
2023/10/04 10:02:54;;;;;;;4.97;1.27;;;;;;;;;;5071365;28;20040;-41
2023/10/04 10:05:32;;;;;;;12.43;2.25;;;;;;;;;;5080917;28;20370;-37
2023/10/04 10:08:06;;;;;;;8.85;1.55;;;;;;;;;;5091381;28;20036;-40
2023/10/04 10:10:34;;;;;;;17.33;2.03;;;;;;;;;;5090097;28;20035;-36
2023/10/04 10:13:01;;;;;;;14.68;2.58;;;;;;;;;;5091688;28;20109;-36
2023/10/04 10:15:29;;;;;;;11.48;1.70;;;;;;;;;;5091404;28;20031;-36
2023/10/04 10:17:56;;;;;;;11.02;2.60;;;;;;;;;;5091336;28;20074;-35
2023/10/04 10:20:23;;;;;;;9.90;2.10;;;;;;;;;;5089833;28;20500;-40
2023/10/04 10:22:59;;;;;;;9.70;1.75;;;;;;;;;;5091061;28;20063;-41
2023/10/04 10:25:27;;;;;;;9.70;1.98;;;;;;;;;;5091005;28;20451;-39
2023/10/04 10:27:57;;;;;;;9.55;1.80;;;;;;;;;;5091584;28;20060;-40
2023/10/04 10:30:25;;;;;;;7.90;1.63;;;;;;;;;;5090560;28;20047;-41
2023/10/04 10:33:02;;;;;;;5.50;1.33;;;;;;;;;;5090044;28;20032;-40
2023/10/04 10:35:57;;;;;;;9.90;1.92;;;;;;;;;;5073922;28;20094;-39
2023/10/04 10:38:31;;;;;;;9.52;1.58;;;;;;;;;;5068220;28;20033;-40
2023/10/04 10:40:58;;;;;;;8.68;1.50;;;;;;;;;;5069779;28;20513;-41
2023/10/04 10:43:25;;;;;;;10.85;2.03;;;;;;;;;;5068554;28;20041;-41
2023/10/04 10:45:52;;;;;;;8.48;1.88;;;;;;;;;;5073654;28;20032;-40
2023/10/04 10:48:31;;;;;;;6.50;1.65;;;;;;;;;;5075292;28;20052;-40
2023/10/04 10:50:58;;;;;;;5.22;1.85;;;;;;;;;;5075090;28;20037;-39
2023/10/04 10:53:25;;;;;;;8.98;1.70;;;;;;;;;;5073463;28;20029;-39
2023/10/04 10:55:54;;;;;;;6.53;1.42;;;;;;;;;;5075109;28;20056;-40
2023/10/04 10:58:21;;;;;;;5.13;1.52;;;;;;;;;;5075111;28;20029;-39
2023/10/04 11:00:48;;;;;;;6.40;1.63;;;;;;;;;;5075150;28;20017;-39
2023/10/04 11:03:19;;;;;;;6.53;1.65;;;;;;;;;;5074906;28;20064;-40
2023/10/04 11:05:46;;;;;;;5.93;1.35;;;;;;;;;;5075087;28;20033;-39
2023/10/04 11:08:15;;;;;;;2.85;1.35;;;;;;;;;;5075036;28;20028;-39
2023/10/04 11:10:42;;;;;;;5.20;1.27;;;;;;;;;;5074766;28;20115;-39
2023/10/04 11:13:09;;;;;;;6.38;1.42;;;;;;;;;;5074756;28;20041;-39
2023/10/04 11:15:36;;;;;;;4.90;1.42;;;;;;;;;;5074831;28;20490;-39
2023/10/04 11:18:06;;;;;;;4.72;1.38;;;;;;;;;;5074807;28;20025;-39
2023/10/04 11:20:36;;;;;;;5.30;1.20;;;;;;;;;;5074619;28;20039;-39
2023/10/04 11:23:03;;;;;;;3.60;1.27;;;;;;;;;;5074419;28;20025;-40
2023/10/04 11:25:31;;;;;;;4.95;1.30;;;;;;;;;;5074364;28;20049;-40
2023/10/04 11:27:58;;;;;;;3.90;1.35;;;;;;;;;;5074481;28;20029;-39
2023/10/04 11:30:27;;;;;;;2.85;1.40;;;;;;;;;;5074652;28;20037;-39
2023/10/04 11:32:54;;;;;;;4.07;1.10;;;;;;;;;;5056834;28;20076;-40
2023/10/04 11:35:21;;;;;;;7.32;1.55;;;;;;;;;;5059071;28;20083;-39
2023/10/04 11:37:52;;;;;;;5.78;1.50;;;;;;;;;;5070548;28;20058;-40
2023/10/04 11:40:20;;;;;;;5.70;1.63;;;;;;;;;;5073735;28;20448;-40
2023/10/04 11:42:47;;;;;;;3.85;1.17;;;;;;;;;;5073496;28;20116;-39
2023/10/04 11:45:26;;;;;;;9.75;1.80;;;;;;;;;;5074383;28;20039;-39
2023/10/04 11:48:08;;;;;;;4.53;1.60;;;;;;;;;;5073615;28;20104;-40
2023/10/04 11:50:54;;;;;;;5.32;1.85;;;;;;;;;;5070541;28;20039;-40
2023/10/04 11:53:33;;;;;;;6.45;1.83;;;;;;;;;;5070851;28;20394;-40
2023/10/04 11:56:10;;;;;;;7.43;1.70;;;;;;;;;;5073183;28;20482;-40
2023/10/04 11:58:49;;;;;;;8.48;1.88;;;;;;;;;;5072999;28;20074;-39
2023/10/04 12:01:17;;;;;;;4.18;1.38;;;;;;;;;;5073047;28;20047;-40
2023/10/04 12:03:44;;;;;;;5.30;1.40;;;;;;;;;;5072859;28;20029;-39
2023/10/04 12:06:13;;;;;;;6.57;1.60;;;;;;;;;;5073314;28;20028;-40
2023/10/04 12:08:40;;;;;;;4.88;1.25;;;;;;;;;;5073211;28;20478;-39
2023/10/04 12:11:13;;;;;;;6.10;1.40;;;;;;;;;;5073079;28;20040;-40
2023/10/04 12:13:41;;;;;;;4.97;1.35;;;;;;;;;;5072645;28;20714;-38
2023/10/04 12:16:08;;;;;;;6.47;1.48;;;;;;;;;;5070405;28;20060;-39
2023/10/04 12:18:36;;;;;;;4.22;1.40;;;;;;;;;;5052547;28;20079;-39
2023/10/04 12:21:03;;;;;;;6.18;1.38;;;;;;;;;;5073115;28;20482;-40
2023/10/04 12:23:33;;;;;;;5.82;1.30;;;;;;;;;;5066490;28;20036;-40
2023/10/04 12:26:00;;;;;;;3.45;1.20;;;;;;;;;;5062586;28;20124;-39
2023/10/04 12:28:29;;;;;;;6.00;1.50;;;;;;;;;;5067133;28;20059;-40
2023/10/04 12:31:03;;;;;;;2.75;1.08;;;;;;;;;;5073350;28;20663;-40
2023/10/04 12:33:30;;;;;;;5.25;1.52;;;;;;;;;;5073148;28;20043;-40
2023/10/04 12:35:57;;;;;;;3.67;1.20;;;;;;;;;;5073412;28;20367;-41
2023/10/04 12:38:24;;;;;;;6.40;1.42;;;;;;;;;;5073278;28;20024;-39
2023/10/04 12:40:52;;;;;;;3.72;1.15;;;;;;;;;;5073019;28;20025;-39
2023/10/04 12:43:20;;;;;;;6.57;1.58;;;;;;;;;;5073076;28;20025;-40
2023/10/04 12:45:52;;;;;;;2.40;1.13;;;;;;;;;;5073272;28;20040;-39
2023/10/04 12:48:19;;;;;;;4.90;1.20;;;;;;;;;;5073061;28;20398;-40
2023/10/04 12:50:47;;;;;;;4.47;1.20;;;;;;;;;;5073102;28;20041;-39
2023/10/04 12:53:14;;;;;;;7.05;1.20;;;;;;;;;;5054812;28;20029;-40
2023/10/04 12:55:42;;;;;;;2.95;1.10;;;;;;;;;;5073138;28;20017;-40
2023/10/04 12:58:09;;;;;;;5.68;0.93;;;;;;;;;;5073042;28;20046;-41
2023/10/04 13:00:36;;;;;;;3.05;1.15;;;;;;;;;;5072958;28;20036;-40
2023/10/04 13:03:03;;;;;;;6.05;1.27;;;;;;;;;;5072736;28;20158;-40
2023/10/04 13:05:31;;;;;;;3.60;1.15;;;;;;;;;;5072727;28;20052;-40
2023/10/04 13:07:58;;;;;;;4.97;1.30;;;;;;;;;;5071927;28;20024;-39
2023/10/04 13:10:25;;;;;;;2.47;1.10;;;;;;;;;;5072582;28;20390;-40
2023/10/04 13:12:52;;;;;;;5.18;1.10;;;;;;;;;;5072488;28;20398;-41
2023/10/04 13:15:19;;;;;;;15.45;1.67;;;;;;;;;;5072606;28;20052;-40
2023/10/04 13:17:46;;;;;;;3.00;0.98;;;;;;;;;;5072490;28;20391;-40
2023/10/04 13:20:25;;;;;;;3.80;1.00;;;;;;;;;;5072370;28;20100;-40
2023/10/04 13:22:55;;;;;;;2.50;0.90;;;;;;;;;;5072249;28;20033;-40
2023/10/04 13:25:23;;;;;;;9.85;1.38;;;;;;;;;;5072176;28;20395;-41
2023/10/04 13:27:50;;;;;;;3.60;1.10;;;;;;;;;;5072310;28;20494;-40
2023/10/04 13:30:17;;;;;;;3.28;1.25;;;;;;;;;;5072305;28;20020;-40
2023/10/04 13:32:53;;;;;;;4.85;1.30;;;;;;;;;;5071871;28;20100;-39
2023/10/04 13:35:20;;;;;;;3.33;1.05;;;;;;;;;;5072264;28;20679;-40
2023/10/04 13:37:51;;;;;;;4.50;1.27;;;;;;;;;;5072167;28;20021;-39
2023/10/04 13:40:19;;;;;;;2.50;1.25;;;;;;;;;;5071948;28;20048;-38
2023/10/04 13:42:48;;;;;;;9.45;1.08;;;;;;;;;;5071946;28;20099;-39
2023/10/04 13:45:16;;;;;;;3.92;1.38;;;;;;;;;;5071873;28;20082;-39
2023/10/04 13:47:45;;;;;;;2.30;0.90;;;;;;;;;;5071874;28;20107;-39
2023/10/04 13:50:12;;;;;;;3.30;0.95;;;;;;;;;;5071796;28;20076;-39
2023/10/04 13:52:40;;;;;;;2.92;1.13;;;;;;;;;;5071762;28;20025;-40
2023/10/04 13:55:11;;;;;;;2.75;1.13;;;;;;;;;;5071931;28;20048;-39
2023/10/04 13:57:39;;;;;;;12.00;1.43;;;;;;;;;;5071812;28;20025;-39
2023/10/04 14:00:22;;;;;;;2.63;0.93;;;;;;;;;;5071697;28;20337;-39
2023/10/04 14:02:54;;;;;;;2.08;0.95;;;;;;;;;;5071567;28;20047;-39
2023/10/04 14:05:21;;;;;;;4.00;1.17;;;;;;;;;;5071694;28;20496;-39
2023/10/04 14:07:53;;;;;;;1.52;0.77;;;;;;;;;;5054156;28;20066;-39
2023/10/04 14:10:24;;;;;;;2.78;0.98;;;;;;;;;;5071607;28;20025;-39
2023/10/04 14:12:55;;;;;;;2.47;0.93;;;;;;;;;;5071651;28;20474;-39
2023/10/04 14:15:26;;;;;;;2.55;0.90;;;;;;;;;;5071712;28;20105;-39
2023/10/04 14:17:58;;;;;;;4.45;1.25;;;;;;;;;;5071727;28;20377;-39
2023/10/04 14:20:26;;;;;;;2.42;1.15;;;;;;;;;;5071494;28;20501;-39
2023/10/04 14:22:56;;;;;;;3.17;1.20;;;;;;;;;;5071504;28;20078;-39
2023/10/04 14:25:23;;;;;;;1.85;0.77;;;;;;;;;;5071198;28;20052;-38
2023/10/04 14:27:50;;;;;;;3.58;1.02;;;;;;;;;;5071576;28;20029;-39
2023/10/04 14:30:17;;;;;;;1.85;0.90;;;;;;;;;;5071425;28;20074;-39
2023/10/04 14:32:47;;;;;;;3.30;1.02;;;;;;;;;;5071405;28;20470;-39
2023/10/04 14:35:14;;;;;;;4.50;1.13;;;;;;;;;;5071495;28;20039;-39
2023/10/04 14:37:41;;;;;;;2.47;1.05;;;;;;;;;;5071463;28;20392;-38
2023/10/04 14:40:17;;;;;;;3.35;1.00;;;;;;;;;;5071475;28;20032;-39
2023/10/04 14:42:45;;;;;;;2.15;0.90;;;;;;;;;;5071206;28;20036;-38
2023/10/04 14:45:13;;;;;;;4.50;1.13;;;;;;;;;;5071140;28;20044;-39
2023/10/04 14:47:40;;;;;;;2.72;0.90;;;;;;;;;;5071192;28;20040;-39
2023/10/04 14:50:09;;;;;;;2.10;0.93;;;;;;;;;;5071346;28;20363;-39
2023/10/04 14:52:36;;;;;;;1.20;0.70;;;;;;;;;;5070995;28;20151;-39
2023/10/04 14:55:06;;;;;;;3.03;1.00;;;;;;;;;;5071301;28;20024;-39
2023/10/04 14:57:34;;;;;;;3.47;1.38;;;;;;;;;;5071040;28;20025;-39
2023/10/04 15:00:04;;;;;;;4.32;0.98;;;;;;;;;;5071305;28;20482;-39
2023/10/04 15:02:31;;;;;;;2.63;1.08;;;;;;;;;;5071155;28;20020;-38
2023/10/04 15:04:58;;;;;;;2.72;1.00;;;;;;;;;;5071087;28;20025;-38
2023/10/04 15:07:25;;;;;;;3.42;0.90;;;;;;;;;;5071196;28;20242;-38